sensor_id;sensor_type;location;lat;lon;timestamp;P1;durP1;ratioP1;P2;durP2;ratioP2
73168;SDS011;61379;59.732;30.468;2023-11-18T00:01:43;9.95;;;9.13;;
73168;SDS011;61379;59.732;30.468;2023-11-18T00:04:10;12.50;;;11.25;;
73168;SDS011;61379;59.732;30.468;2023-11-18T00:06:41;10.15;;;9.25;;
73168;SDS011;61379;59.732;30.468;2023-11-18T00:09:09;10.85;;;9.55;;
73168;SDS011;61379;59.732;30.468;2023-11-18T00:11:38;10.23;;;8.02;;
73168;SDS011;61379;59.732;30.468;2023-11-18T00:14:06;11.43;;;10.30;;
73168;SDS011;61379;59.732;30.468;2023-11-18T00:16:33;11.13;;;10.23;;
73168;SDS011;61379;59.732;30.468;2023-11-18T00:19:00;10.98;;;9.18;;
73168;SDS011;61379;59.732;30.468;2023-11-18T00:21:30;10.65;;;9.55;;
73168;SDS011;61379;59.732;30.468;2023-11-18T00:23:57;10.82;;;9.82;;
73168;SDS011;61379;59.732;30.468;2023-11-18T00:26:23;11.15;;;9.93;;
73168;SDS011;61379;59.732;30.468;2023-11-18T00:28:51;10.25;;;9.25;;
73168;SDS011;61379;59.732;30.468;2023-11-18T00:31:19;11.35;;;10.30;;
73168;SDS011;61379;59.732;30.468;2023-11-18T00:33:46;9.63;;;8.90;;
73168;SDS011;61379;59.732;30.468;2023-11-18T00:36:13;12.88;;;10.38;;
73168;SDS011;61379;59.732;30.468;2023-11-18T00:38:40;11.32;;;10.27;;
73168;SDS011;61379;59.732;30.468;2023-11-18T00:41:07;16.85;;;10.43;;
73168;SDS011;61379;59.732;30.468;2023-11-18T00:43:33;11.80;;;10.63;;
73168;SDS011;61379;59.732;30.468;2023-11-18T00:46:00;9.63;;;8.45;;
73168;SDS011;61379;59.732;30.468;2023-11-18T00:48:30;11.13;;;10.02;;
73168;SDS011;61379;59.732;30.468;2023-11-18T00:50:56;10.82;;;9.10;;
73168;SDS011;61379;59.732;30.468;2023-11-18T00:53:23;10.68;;;8.88;;
73168;SDS011;61379;59.732;30.468;2023-11-18T00:55:50;10.93;;;9.15;;
73168;SDS011;61379;59.732;30.468;2023-11-18T00:58:17;8.80;;;7.90;;
73168;SDS011;61379;59.732;30.468;2023-11-18T01:00:44;9.15;;;8.35;;
73168;SDS011;61379;59.732;30.468;2023-11-18T01:03:10;9.40;;;8.48;;
73168;SDS011;61379;59.732;30.468;2023-11-18T01:05:38;9.15;;;8.25;;
73168;SDS011;61379;59.732;30.468;2023-11-18T01:08:06;8.02;;;7.38;;
73168;SDS011;61379;59.732;30.468;2023-11-18T01:10:34;9.73;;;8.55;;
73168;SDS011;61379;59.732;30.468;2023-11-18T01:13:00;7.68;;;7.10;;
73168;SDS011;61379;59.732;30.468;2023-11-18T01:15:27;8.85;;;8.00;;
73168;SDS011;61379;59.732;30.468;2023-11-18T01:17:54;7.78;;;7.05;;
73168;SDS011;61379;59.732;30.468;2023-11-18T01:20:21;8.30;;;7.70;;
73168;SDS011;61379;59.732;30.468;2023-11-18T01:22:49;7.60;;;7.13;;
73168;SDS011;61379;59.732;30.468;2023-11-18T01:25:16;6.93;;;6.53;;
73168;SDS011;61379;59.732;30.468;2023-11-18T01:27:44;6.97;;;6.57;;
73168;SDS011;61379;59.732;30.468;2023-11-18T01:30:12;7.80;;;7.10;;
73168;SDS011;61379;59.732;30.468;2023-11-18T01:32:39;8.82;;;7.95;;
73168;SDS011;61379;59.732;30.468;2023-11-18T01:35:06;6.60;;;6.00;;
73168;SDS011;61379;59.732;30.468;2023-11-18T01:37:34;6.95;;;6.45;;
73168;SDS011;61379;59.732;30.468;2023-11-18T01:40:02;8.30;;;7.47;;
73168;SDS011;61379;59.732;30.468;2023-11-18T01:42:32;6.97;;;6.38;;
73168;SDS011;61379;59.732;30.468;2023-11-18T01:44:59;6.60;;;6.10;;
73168;SDS011;61379;59.732;30.468;2023-11-18T01:47:30;6.35;;;5.85;;
73168;SDS011;61379;59.732;30.468;2023-11-18T01:49:58;6.43;;;5.93;;
73168;SDS011;61379;59.732;30.468;2023-11-18T01:52:25;6.25;;;5.88;;
73168;SDS011;61379;59.732;30.468;2023-11-18T01:54:52;6.80;;;6.20;;
73168;SDS011;61379;59.732;30.468;2023-11-18T01:57:21;7.40;;;6.80;;
73168;SDS011;61379;59.732;30.468;2023-11-18T01:59:49;6.15;;;5.53;;
73168;SDS011;61379;59.732;30.468;2023-11-18T02:02:15;7.55;;;7.05;;
73168;SDS011;61379;59.732;30.468;2023-11-18T02:04:42;8.23;;;7.53;;
73168;SDS011;61379;59.732;30.468;2023-11-18T02:07:10;8.05;;;7.38;;
73168;SDS011;61379;59.732;30.468;2023-11-18T02:09:40;7.35;;;6.85;;
73168;SDS011;61379;59.732;30.468;2023-11-18T02:12:10;7.95;;;7.45;;
73168;SDS011;61379;59.732;30.468;2023-11-18T02:14:43;5.93;;;5.43;;
73168;SDS011;61379;59.732;30.468;2023-11-18T02:17:12;6.85;;;6.43;;
73168;SDS011;61379;59.732;30.468;2023-11-18T02:19:40;7.60;;;7.05;;
73168;SDS011;61379;59.732;30.468;2023-11-18T02:22:07;7.03;;;6.53;;
73168;SDS011;61379;59.732;30.468;2023-11-18T02:24:36;6.88;;;6.47;;
73168;SDS011;61379;59.732;30.468;2023-11-18T02:27:05;7.25;;;6.55;;
73168;SDS011;61379;59.732;30.468;2023-11-18T02:29:32;7.95;;;7.32;;
73168;SDS011;61379;59.732;30.468;2023-11-18T02:32:03;9.75;;;7.18;;
73168;SDS011;61379;59.732;30.468;2023-11-18T02:34:33;7.00;;;6.40;;
73168;SDS011;61379;59.732;30.468;2023-11-18T02:37:03;7.20;;;6.65;;
73168;SDS011;61379;59.732;30.468;2023-11-18T02:39:32;7.65;;;6.90;;
73168;SDS011;61379;59.732;30.468;2023-11-18T02:42:05;7.20;;;6.70;;
73168;SDS011;61379;59.732;30.468;2023-11-18T02:44:34;7.75;;;7.13;;
73168;SDS011;61379;59.732;30.468;2023-11-18T02:47:02;7.25;;;6.82;;
73168;SDS011;61379;59.732;30.468;2023-11-18T02:49:30;7.75;;;7.20;;
73168;SDS011;61379;59.732;30.468;2023-11-18T02:51:57;7.07;;;6.68;;
73168;SDS011;61379;59.732;30.468;2023-11-18T02:54:24;7.43;;;6.95;;
73168;SDS011;61379;59.732;30.468;2023-11-18T02:56:52;8.27;;;7.68;;
73168;SDS011;61379;59.732;30.468;2023-11-18T02:59:20;7.05;;;6.65;;
73168;SDS011;61379;59.732;30.468;2023-11-18T03:01:46;7.20;;;6.65;;
73168;SDS011;61379;59.732;30.468;2023-11-18T03:04:13;8.32;;;7.63;;
73168;SDS011;61379;59.732;30.468;2023-11-18T03:06:40;7.95;;;7.43;;
73168;SDS011;61379;59.732;30.468;2023-11-18T03:09:07;6.60;;;6.20;;
73168;SDS011;61379;59.732;30.468;2023-11-18T03:11:35;7.43;;;6.82;;
73168;SDS011;61379;59.732;30.468;2023-11-18T03:14:03;7.07;;;6.53;;
73168;SDS011;61379;59.732;30.468;2023-11-18T03:16:37;7.68;;;7.18;;
73168;SDS011;61379;59.732;30.468;2023-11-18T03:19:04;7.97;;;7.38;;
73168;SDS011;61379;59.732;30.468;2023-11-18T03:21:32;6.55;;;6.05;;
73168;SDS011;61379;59.732;30.468;2023-11-18T03:23:59;6.30;;;5.90;;
73168;SDS011;61379;59.732;30.468;2023-11-18T03:26:25;7.80;;;6.88;;
73168;SDS011;61379;59.732;30.468;2023-11-18T03:28:52;7.38;;;6.88;;
73168;SDS011;61379;59.732;30.468;2023-11-18T03:31:19;5.45;;;5.13;;
73168;SDS011;61379;59.732;30.468;2023-11-18T03:33:47;8.15;;;7.55;;
73168;SDS011;61379;59.732;30.468;2023-11-18T03:36:14;7.55;;;7.05;;
73168;SDS011;61379;59.732;30.468;2023-11-18T03:38:43;7.15;;;6.68;;
73168;SDS011;61379;59.732;30.468;2023-11-18T03:41:09;7.50;;;7.00;;
73168;SDS011;61379;59.732;30.468;2023-11-18T03:43:38;8.00;;;7.50;;
73168;SDS011;61379;59.732;30.468;2023-11-18T03:46:05;7.72;;;7.15;;
73168;SDS011;61379;59.732;30.468;2023-11-18T03:48:32;7.50;;;7.00;;
73168;SDS011;61379;59.732;30.468;2023-11-18T03:51:01;8.18;;;7.68;;
73168;SDS011;61379;59.732;30.468;2023-11-18T03:53:29;8.23;;;7.45;;
73168;SDS011;61379;59.732;30.468;2023-11-18T03:55:55;8.02;;;7.38;;
73168;SDS011;61379;59.732;30.468;2023-11-18T03:58:22;7.50;;;6.90;;
73168;SDS011;61379;59.732;30.468;2023-11-18T04:00:49;7.30;;;6.80;;
73168;SDS011;61379;59.732;30.468;2023-11-18T04:03:16;8.15;;;7.65;;
73168;SDS011;61379;59.732;30.468;2023-11-18T04:05:43;5.03;;;4.63;;
73168;SDS011;61379;59.732;30.468;2023-11-18T04:08:11;7.80;;;7.30;;
73168;SDS011;61379;59.732;30.468;2023-11-18T04:10:38;7.20;;;6.80;;
73168;SDS011;61379;59.732;30.468;2023-11-18T04:13:05;7.28;;;6.72;;
73168;SDS011;61379;59.732;30.468;2023-11-18T04:15:32;7.75;;;7.25;;
73168;SDS011;61379;59.732;30.468;2023-11-18T04:18:00;7.78;;;7.28;;
73168;SDS011;61379;59.732;30.468;2023-11-18T04:20:27;8.13;;;7.53;;
73168;SDS011;61379;59.732;30.468;2023-11-18T04:22:54;6.80;;;6.32;;
73168;SDS011;61379;59.732;30.468;2023-11-18T04:25:22;7.15;;;6.70;;
73168;SDS011;61379;59.732;30.468;2023-11-18T04:27:50;7.22;;;6.68;;
73168;SDS011;61379;59.732;30.468;2023-11-18T04:30:17;7.05;;;6.55;;
73168;SDS011;61379;59.732;30.468;2023-11-18T04:32:44;7.97;;;7.05;;
73168;SDS011;61379;59.732;30.468;2023-11-18T04:35:11;7.05;;;6.53;;
73168;SDS011;61379;59.732;30.468;2023-11-18T04:37:38;7.13;;;6.63;;
73168;SDS011;61379;59.732;30.468;2023-11-18T04:40:08;7.40;;;6.90;;
73168;SDS011;61379;59.732;30.468;2023-11-18T04:42:39;6.55;;;6.15;;
73168;SDS011;61379;59.732;30.468;2023-11-18T04:45:06;6.65;;;6.25;;
73168;SDS011;61379;59.732;30.468;2023-11-18T04:47:35;6.53;;;6.13;;
73168;SDS011;61379;59.732;30.468;2023-11-18T04:50:01;7.72;;;7.10;;
73168;SDS011;61379;59.732;30.468;2023-11-18T04:52:29;7.53;;;7.03;;
73168;SDS011;61379;59.732;30.468;2023-11-18T04:55:00;6.75;;;6.35;;
73168;SDS011;61379;59.732;30.468;2023-11-18T04:57:28;5.70;;;5.32;;
73168;SDS011;61379;59.732;30.468;2023-11-18T04:59:57;7.63;;;7.13;;
73168;SDS011;61379;59.732;30.468;2023-11-18T05:02:24;6.97;;;6.53;;
73168;SDS011;61379;59.732;30.468;2023-11-18T05:04:50;7.47;;;6.88;;
73168;SDS011;61379;59.732;30.468;2023-11-18T05:07:17;7.72;;;7.13;;
73168;SDS011;61379;59.732;30.468;2023-11-18T05:09:44;6.80;;;6.40;;
73168;SDS011;61379;59.732;30.468;2023-11-18T05:12:10;7.95;;;7.40;;
73168;SDS011;61379;59.732;30.468;2023-11-18T05:14:37;8.32;;;7.70;;
73168;SDS011;61379;59.732;30.468;2023-11-18T05:17:06;8.15;;;7.60;;
73168;SDS011;61379;59.732;30.468;2023-11-18T05:19:33;7.95;;;7.43;;
73168;SDS011;61379;59.732;30.468;2023-11-18T05:22:00;7.55;;;6.95;;
73168;SDS011;61379;59.732;30.468;2023-11-18T05:24:27;7.30;;;6.90;;
73168;SDS011;61379;59.732;30.468;2023-11-18T05:26:54;6.88;;;6.47;;
73168;SDS011;61379;59.732;30.468;2023-11-18T05:29:21;7.72;;;7.10;;
73168;SDS011;61379;59.732;30.468;2023-11-18T05:31:47;8.10;;;7.60;;
73168;SDS011;61379;59.732;30.468;2023-11-18T05:34:15;7.28;;;6.68;;
73168;SDS011;61379;59.732;30.468;2023-11-18T05:36:46;7.50;;;7.00;;
73168;SDS011;61379;59.732;30.468;2023-11-18T05:39:14;7.82;;;7.22;;
73168;SDS011;61379;59.732;30.468;2023-11-18T05:41:41;8.00;;;7.40;;
73168;SDS011;61379;59.732;30.468;2023-11-18T05:44:11;7.93;;;7.28;;
73168;SDS011;61379;59.732;30.468;2023-11-18T05:46:42;8.82;;;8.23;;
73168;SDS011;61379;59.732;30.468;2023-11-18T05:49:11;8.50;;;7.90;;
73168;SDS011;61379;59.732;30.468;2023-11-18T05:51:40;7.82;;;7.32;;
73168;SDS011;61379;59.732;30.468;2023-11-18T05:54:07;8.55;;;7.95;;
73168;SDS011;61379;59.732;30.468;2023-11-18T05:56:33;7.20;;;6.70;;
73168;SDS011;61379;59.732;30.468;2023-11-18T05:58:59;8.27;;;7.78;;
73168;SDS011;61379;59.732;30.468;2023-11-18T06:01:28;8.77;;;8.18;;
73168;SDS011;61379;59.732;30.468;2023-11-18T06:03:55;9.38;;;8.63;;
73168;SDS011;61379;59.732;30.468;2023-11-18T06:06:23;8.52;;;7.93;;
73168;SDS011;61379;59.732;30.468;2023-11-18T06:08:51;8.05;;;7.35;;
73168;SDS011;61379;59.732;30.468;2023-11-18T06:11:18;8.90;;;8.30;;
73168;SDS011;61379;59.732;30.468;2023-11-18T06:13:45;7.75;;;7.20;;
73168;SDS011;61379;59.732;30.468;2023-11-18T06:16:13;8.25;;;7.75;;
73168;SDS011;61379;59.732;30.468;2023-11-18T06:18:41;8.35;;;7.85;;
73168;SDS011;61379;59.732;30.468;2023-11-18T06:21:11;8.55;;;7.90;;
73168;SDS011;61379;59.732;30.468;2023-11-18T06:23:37;8.00;;;7.45;;
73168;SDS011;61379;59.732;30.468;2023-11-18T06:26:06;9.88;;;9.02;;
73168;SDS011;61379;59.732;30.468;2023-11-18T06:28:35;9.55;;;8.93;;
73168;SDS011;61379;59.732;30.468;2023-11-18T06:31:02;9.60;;;8.70;;
73168;SDS011;61379;59.732;30.468;2023-11-18T06:33:29;8.77;;;8.02;;
73168;SDS011;61379;59.732;30.468;2023-11-18T06:35:56;8.90;;;8.20;;
73168;SDS011;61379;59.732;30.468;2023-11-18T06:38:22;8.07;;;7.50;;
73168;SDS011;61379;59.732;30.468;2023-11-18T06:40:50;9.18;;;8.43;;
73168;SDS011;61379;59.732;30.468;2023-11-18T06:43:20;8.32;;;7.72;;
73168;SDS011;61379;59.732;30.468;2023-11-18T06:45:46;7.60;;;7.20;;
73168;SDS011;61379;59.732;30.468;2023-11-18T06:48:14;7.35;;;6.90;;
73168;SDS011;61379;59.732;30.468;2023-11-18T06:50:45;7.78;;;7.28;;
73168;SDS011;61379;59.732;30.468;2023-11-18T06:53:12;7.32;;;6.80;;
73168;SDS011;61379;59.732;30.468;2023-11-18T06:55:41;7.50;;;7.00;;
73168;SDS011;61379;59.732;30.468;2023-11-18T06:58:08;7.68;;;7.10;;
73168;SDS011;61379;59.732;30.468;2023-11-18T07:00:37;7.82;;;7.32;;
73168;SDS011;61379;59.732;30.468;2023-11-18T07:03:04;7.68;;;7.18;;
73168;SDS011;61379;59.732;30.468;2023-11-18T07:05:31;8.00;;;7.50;;
73168;SDS011;61379;59.732;30.468;2023-11-18T07:07:57;8.02;;;7.53;;
73168;SDS011;61379;59.732;30.468;2023-11-18T07:10:24;9.23;;;8.52;;
73168;SDS011;61379;59.732;30.468;2023-11-18T07:12:53;8.07;;;7.05;;
73168;SDS011;61379;59.732;30.468;2023-11-18T07:15:19;8.68;;;8.07;;
73168;SDS011;61379;59.732;30.468;2023-11-18T07:17:48;8.43;;;7.90;;
73168;SDS011;61379;59.732;30.468;2023-11-18T07:20:14;9.07;;;8.48;;
73168;SDS011;61379;59.732;30.468;2023-11-18T07:22:42;7.88;;;7.40;;
73168;SDS011;61379;59.732;30.468;2023-11-18T07:25:09;7.88;;;7.38;;
73168;SDS011;61379;59.732;30.468;2023-11-18T07:27:35;6.32;;;5.82;;
73168;SDS011;61379;59.732;30.468;2023-11-18T07:30:02;7.28;;;6.88;;
73168;SDS011;61379;59.732;30.468;2023-11-18T07:32:32;8.15;;;7.55;;
73168;SDS011;61379;59.732;30.468;2023-11-18T07:35:00;8.65;;;7.97;;
73168;SDS011;61379;59.732;30.468;2023-11-18T07:37:27;8.90;;;8.15;;
73168;SDS011;61379;59.732;30.468;2023-11-18T07:39:58;7.32;;;6.93;;
73168;SDS011;61379;59.732;30.468;2023-11-18T07:42:26;8.02;;;7.53;;
73168;SDS011;61379;59.732;30.468;2023-11-18T07:44:52;7.88;;;7.38;;
73168;SDS011;61379;59.732;30.468;2023-11-18T07:47:20;8.00;;;7.43;;
73168;SDS011;61379;59.732;30.468;2023-11-18T07:49:47;7.95;;;7.53;;
73168;SDS011;61379;59.732;30.468;2023-11-18T07:52:15;7.82;;;7.32;;
73168;SDS011;61379;59.732;30.468;2023-11-18T07:54:42;6.70;;;6.22;;
73168;SDS011;61379;59.732;30.468;2023-11-18T07:57:09;8.93;;;8.23;;
73168;SDS011;61379;59.732;30.468;2023-11-18T07:59:35;6.65;;;6.15;;
73168;SDS011;61379;59.732;30.468;2023-11-18T08:02:03;8.25;;;7.55;;
73168;SDS011;61379;59.732;30.468;2023-11-18T08:04:34;8.82;;;8.13;;
73168;SDS011;61379;59.732;30.468;2023-11-18T08:07:00;8.68;;;8.13;;
73168;SDS011;61379;59.732;30.468;2023-11-18T08:09:31;8.98;;;8.38;;
73168;SDS011;61379;59.732;30.468;2023-11-18T08:11:58;9.45;;;8.75;;
73168;SDS011;61379;59.732;30.468;2023-11-18T08:14:24;9.02;;;8.32;;
73168;SDS011;61379;59.732;30.468;2023-11-18T08:16:52;9.13;;;8.50;;
73168;SDS011;61379;59.732;30.468;2023-11-18T08:19:20;7.63;;;7.22;;
73168;SDS011;61379;59.732;30.468;2023-11-18T08:21:48;9.27;;;8.60;;
73168;SDS011;61379;59.732;30.468;2023-11-18T08:24:15;9.73;;;9.02;;
73168;SDS011;61379;59.732;30.468;2023-11-18T08:26:43;7.63;;;7.13;;
73168;SDS011;61379;59.732;30.468;2023-11-18T08:31:38;7.72;;;7.32;;
73168;SDS011;61379;59.732;30.468;2023-11-18T08:34:06;8.75;;;8.15;;
73168;SDS011;61379;59.732;30.468;2023-11-18T08:36:33;8.57;;;7.97;;
73168;SDS011;61379;59.732;30.468;2023-11-18T08:39:00;8.82;;;8.23;;
73168;SDS011;61379;59.732;30.468;2023-11-18T08:41:27;9.77;;;9.07;;
73168;SDS011;61379;59.732;30.468;2023-11-18T08:43:57;9.63;;;8.93;;
73168;SDS011;61379;59.732;30.468;2023-11-18T08:46:25;10.98;;;9.68;;
73168;SDS011;61379;59.732;30.468;2023-11-18T08:48:52;8.55;;;7.95;;
73168;SDS011;61379;59.732;30.468;2023-11-18T08:51:21;9.25;;;8.55;;
73168;SDS011;61379;59.732;30.468;2023-11-18T08:53:52;9.65;;;8.95;;
73168;SDS011;61379;59.732;30.468;2023-11-18T08:56:37;10.05;;;9.27;;
73168;SDS011;61379;59.732;30.468;2023-11-18T09:06:45;10.60;;;9.88;;
73168;SDS011;61379;59.732;30.468;2023-11-18T09:09:41;9.73;;;9.02;;
73168;SDS011;61379;59.732;30.468;2023-11-18T09:14:52;8.88;;;8.23;;
73168;SDS011;61379;59.732;30.468;2023-11-18T09:17:20;9.40;;;8.80;;
73168;SDS011;61379;59.732;30.468;2023-11-18T09:19:47;11.27;;;10.10;;
73168;SDS011;61379;59.732;30.468;2023-11-18T09:22:16;9.80;;;9.20;;
73168;SDS011;61379;59.732;30.468;2023-11-18T09:24:45;8.13;;;7.53;;
73168;SDS011;61379;59.732;30.468;2023-11-18T09:27:12;9.35;;;8.75;;
73168;SDS011;61379;59.732;30.468;2023-11-18T09:29:38;9.15;;;8.52;;
73168;SDS011;61379;59.732;30.468;2023-11-18T09:32:06;9.00;;;8.40;;
73168;SDS011;61379;59.732;30.468;2023-11-18T09:34:33;8.77;;;8.18;;
73168;SDS011;61379;59.732;30.468;2023-11-18T09:37:00;8.93;;;8.15;;
73168;SDS011;61379;59.732;30.468;2023-11-18T09:39:28;8.73;;;8.23;;
73168;SDS011;61379;59.732;30.468;2023-11-18T09:42:04;10.13;;;9.13;;
73168;SDS011;61379;59.732;30.468;2023-11-18T09:44:35;8.73;;;8.23;;
73168;SDS011;61379;59.732;30.468;2023-11-18T09:47:03;9.00;;;8.40;;
73168;SDS011;61379;59.732;30.468;2023-11-18T09:49:39;9.30;;;8.68;;
73168;SDS011;61379;59.732;30.468;2023-11-18T09:52:06;9.50;;;8.80;;
73168;SDS011;61379;59.732;30.468;2023-11-18T09:54:36;8.77;;;8.18;;
73168;SDS011;61379;59.732;30.468;2023-11-18T09:57:08;8.77;;;8.23;;
73168;SDS011;61379;59.732;30.468;2023-11-18T09:59:41;7.95;;;7.45;;
73168;SDS011;61379;59.732;30.468;2023-11-18T10:02:10;9.05;;;8.32;;
73168;SDS011;61379;59.732;30.468;2023-11-18T10:04:37;8.70;;;8.13;;
73168;SDS011;61379;59.732;30.468;2023-11-18T10:07:05;9.50;;;8.90;;
73168;SDS011;61379;59.732;30.468;2023-11-18T10:09:32;8.30;;;7.85;;
73168;SDS011;61379;59.732;30.468;2023-11-18T10:12:05;9.27;;;8.50;;
73168;SDS011;61379;59.732;30.468;2023-11-18T10:14:32;7.85;;;7.45;;
73168;SDS011;61379;59.732;30.468;2023-11-18T10:17:03;7.75;;;7.05;;
73168;SDS011;61379;59.732;30.468;2023-11-18T10:22:26;10.20;;;9.50;;
73168;SDS011;61379;59.732;30.468;2023-11-18T10:24:53;10.15;;;9.25;;
73168;SDS011;61379;59.732;30.468;2023-11-18T10:27:23;10.25;;;9.48;;
73168;SDS011;61379;59.732;30.468;2023-11-18T10:29:50;10.32;;;9.52;;
73168;SDS011;61379;59.732;30.468;2023-11-18T10:32:21;8.70;;;8.10;;
73168;SDS011;61379;59.732;30.468;2023-11-18T10:34:53;9.15;;;7.65;;
73168;SDS011;61379;59.732;30.468;2023-11-18T10:37:20;10.15;;;9.23;;
73168;SDS011;61379;59.732;30.468;2023-11-18T10:39:48;9.25;;;8.68;;
73168;SDS011;61379;59.732;30.468;2023-11-18T10:42:16;9.10;;;8.50;;
73168;SDS011;61379;59.732;30.468;2023-11-18T10:44:55;8.77;;;8.07;;
73168;SDS011;61379;59.732;30.468;2023-11-18T10:47:23;10.45;;;9.45;;
73168;SDS011;61379;59.732;30.468;2023-11-18T10:49:51;9.90;;;9.25;;
73168;SDS011;61379;59.732;30.468;2023-11-18T10:52:18;10.25;;;9.65;;
73168;SDS011;61379;59.732;30.468;2023-11-18T10:54:50;10.63;;;9.70;;
73168;SDS011;61379;59.732;30.468;2023-11-18T10:57:19;9.95;;;9.25;;
73168;SDS011;61379;59.732;30.468;2023-11-18T11:02:33;10.15;;;9.38;;
73168;SDS011;61379;59.732;30.468;2023-11-18T11:05:04;9.05;;;8.55;;
73168;SDS011;61379;59.732;30.468;2023-11-18T11:07:32;9.38;;;8.57;;
73168;SDS011;61379;59.732;30.468;2023-11-18T11:09:59;10.15;;;9.45;;
73168;SDS011;61379;59.732;30.468;2023-11-18T11:12:32;9.48;;;8.73;;
73168;SDS011;61379;59.732;30.468;2023-11-18T11:15:00;7.68;;;7.22;;
73168;SDS011;61379;59.732;30.468;2023-11-18T11:17:30;8.68;;;8.07;;
73168;SDS011;61379;59.732;30.468;2023-11-18T11:20:04;10.68;;;9.98;;
73168;SDS011;61379;59.732;30.468;2023-11-18T11:22:45;9.15;;;8.55;;
73168;SDS011;61379;59.732;30.468;2023-11-18T11:25:16;9.55;;;8.95;;
73168;SDS011;61379;59.732;30.468;2023-11-18T11:27:50;9.38;;;8.77;;
73168;SDS011;61379;59.732;30.468;2023-11-18T11:30:28;9.27;;;8.50;;
73168;SDS011;61379;59.732;30.468;2023-11-18T11:33:00;10.13;;;9.43;;
73168;SDS011;61379;59.732;30.468;2023-11-18T11:35:33;10.35;;;9.55;;
73168;SDS011;61379;59.732;30.468;2023-11-18T11:38:01;9.25;;;8.65;;
73168;SDS011;61379;59.732;30.468;2023-11-18T11:40:35;8.48;;;7.78;;
73168;SDS011;61379;59.732;30.468;2023-11-18T11:43:03;10.00;;;9.40;;
73168;SDS011;61379;59.732;30.468;2023-11-18T11:45:35;8.68;;;8.13;;
73168;SDS011;61379;59.732;30.468;2023-11-18T11:48:02;9.73;;;8.93;;
73168;SDS011;61379;59.732;30.468;2023-11-18T11:50:56;10.27;;;9.43;;
73168;SDS011;61379;59.732;30.468;2023-11-18T11:53:30;9.13;;;8.52;;
73168;SDS011;61379;59.732;30.468;2023-11-18T11:55:58;9.65;;;8.95;;
73168;SDS011;61379;59.732;30.468;2023-11-18T11:58:33;9.25;;;8.65;;
73168;SDS011;61379;59.732;30.468;2023-11-18T12:01:02;8.93;;;8.43;;
73168;SDS011;61379;59.732;30.468;2023-11-18T12:03:43;9.65;;;9.02;;
73168;SDS011;61379;59.732;30.468;2023-11-18T12:06:16;9.88;;;9.00;;
73168;SDS011;61379;59.732;30.468;2023-11-18T12:08:49;8.90;;;8.40;;
73168;SDS011;61379;59.732;30.468;2023-11-18T12:11:17;9.65;;;9.05;;
73168;SDS011;61379;59.732;30.468;2023-11-18T12:16:28;9.70;;;9.10;;
73168;SDS011;61379;59.732;30.468;2023-11-18T12:19:30;9.02;;;8.52;;
73168;SDS011;61379;59.732;30.468;2023-11-18T12:21:59;9.25;;;8.65;;
73168;SDS011;61379;59.732;30.468;2023-11-18T12:24:33;8.80;;;8.30;;
73168;SDS011;61379;59.732;30.468;2023-11-18T12:27:00;9.70;;;9.10;;
73168;SDS011;61379;59.732;30.468;2023-11-18T12:29:31;9.75;;;9.00;;
73168;SDS011;61379;59.732;30.468;2023-11-18T12:31:59;8.75;;;8.18;;
73168;SDS011;61379;59.732;30.468;2023-11-18T12:37:27;8.88;;;8.38;;
73168;SDS011;61379;59.732;30.468;2023-11-18T12:40:14;9.50;;;8.63;;
73168;SDS011;61379;59.732;30.468;2023-11-18T12:42:59;8.63;;;8.02;;
73168;SDS011;61379;59.732;30.468;2023-11-18T12:45:42;8.63;;;8.13;;
73168;SDS011;61379;59.732;30.468;2023-11-18T12:48:13;9.48;;;8.77;;
73168;SDS011;61379;59.732;30.468;2023-11-18T12:53:10;8.93;;;8.43;;
73168;SDS011;61379;59.732;30.468;2023-11-18T12:55:40;10.27;;;9.57;;
73168;SDS011;61379;59.732;30.468;2023-11-18T12:58:07;10.20;;;9.50;;
73168;SDS011;61379;59.732;30.468;2023-11-18T13:00:39;9.13;;;8.55;;
73168;SDS011;61379;59.732;30.468;2023-11-18T13:03:08;7.85;;;7.43;;
73168;SDS011;61379;59.732;30.468;2023-11-18T13:05:36;9.30;;;8.38;;
73168;SDS011;61379;59.732;30.468;2023-11-18T13:08:03;7.53;;;6.93;;
73168;SDS011;61379;59.732;30.468;2023-11-18T13:10:31;10.10;;;8.93;;
73168;SDS011;61379;59.732;30.468;2023-11-18T13:12:58;7.93;;;7.53;;
73168;SDS011;61379;59.732;30.468;2023-11-18T13:15:25;10.38;;;9.48;;
73168;SDS011;61379;59.732;30.468;2023-11-18T13:17:58;9.32;;;8.70;;
73168;SDS011;61379;59.732;30.468;2023-11-18T13:20:25;7.95;;;7.45;;
73168;SDS011;61379;59.732;30.468;2023-11-18T13:22:52;8.00;;;7.35;;
73168;SDS011;61379;59.732;30.468;2023-11-18T13:25:22;8.27;;;7.53;;
73168;SDS011;61379;59.732;30.468;2023-11-18T13:27:50;8.15;;;7.55;;
73168;SDS011;61379;59.732;30.468;2023-11-18T13:30:17;9.65;;;7.85;;
73168;SDS011;61379;59.732;30.468;2023-11-18T13:32:46;7.65;;;7.15;;
73168;SDS011;61379;59.732;30.468;2023-11-18T13:35:14;6.55;;;6.05;;
73168;SDS011;61379;59.732;30.468;2023-11-18T13:37:46;8.32;;;7.68;;
73168;SDS011;61379;59.732;30.468;2023-11-18T13:40:13;7.25;;;6.75;;
73168;SDS011;61379;59.732;30.468;2023-11-18T13:42:44;7.30;;;6.80;;
73168;SDS011;61379;59.732;30.468;2023-11-18T13:45:14;7.85;;;7.15;;
73168;SDS011;61379;59.732;30.468;2023-11-18T13:47:49;8.65;;;7.95;;
73168;SDS011;61379;59.732;30.468;2023-11-18T13:50:17;8.85;;;8.15;;
73168;SDS011;61379;59.732;30.468;2023-11-18T13:52:45;8.50;;;7.72;;
73168;SDS011;61379;59.732;30.468;2023-11-18T13:55:12;9.02;;;8.32;;
73168;SDS011;61379;59.732;30.468;2023-11-18T13:57:42;8.05;;;7.35;;
73168;SDS011;61379;59.732;30.468;2023-11-18T14:00:10;7.88;;;6.93;;
73168;SDS011;61379;59.732;30.468;2023-11-18T14:02:42;7.80;;;7.30;;
73168;SDS011;61379;59.732;30.468;2023-11-18T14:05:14;6.82;;;6.32;;
73168;SDS011;61379;59.732;30.468;2023-11-18T14:07:42;6.97;;;6.47;;
73168;SDS011;61379;59.732;30.468;2023-11-18T14:10:09;8.93;;;8.02;;
73168;SDS011;61379;59.732;30.468;2023-11-18T14:12:38;6.32;;;5.88;;
73168;SDS011;61379;59.732;30.468;2023-11-18T14:15:05;7.60;;;6.82;;
73168;SDS011;61379;59.732;30.468;2023-11-18T14:20:03;8.15;;;7.53;;
73168;SDS011;61379;59.732;30.468;2023-11-18T14:22:32;8.43;;;6.05;;
73168;SDS011;61379;59.732;30.468;2023-11-18T14:24:59;8.70;;;7.90;;
73168;SDS011;61379;59.732;30.468;2023-11-18T14:27:25;7.50;;;7.00;;
73168;SDS011;61379;59.732;30.468;2023-11-18T14:29:54;7.22;;;6.72;;
73168;SDS011;61379;59.732;30.468;2023-11-18T14:32:20;5.80;;;5.30;;
73168;SDS011;61379;59.732;30.468;2023-11-18T14:34:47;8.05;;;7.35;;
73168;SDS011;61379;59.732;30.468;2023-11-18T14:37:16;6.65;;;5.63;;
73168;SDS011;61379;59.732;30.468;2023-11-18T14:39:44;6.03;;;5.63;;
73168;SDS011;61379;59.732;30.468;2023-11-18T14:42:11;7.65;;;6.88;;
73168;SDS011;61379;59.732;30.468;2023-11-18T14:44:38;8.50;;;7.80;;
73168;SDS011;61379;59.732;30.468;2023-11-18T14:47:04;7.28;;;6.68;;
73168;SDS011;61379;59.732;30.468;2023-11-18T14:49:32;7.90;;;7.20;;
73168;SDS011;61379;59.732;30.468;2023-11-18T14:51:59;6.82;;;6.22;;
73168;SDS011;61379;59.732;30.468;2023-11-18T14:54:28;6.78;;;6.20;;
73168;SDS011;61379;59.732;30.468;2023-11-18T14:57:01;6.60;;;5.90;;
73168;SDS011;61379;59.732;30.468;2023-11-18T14:59:28;8.32;;;7.53;;
73168;SDS011;61379;59.732;30.468;2023-11-18T15:01:55;7.75;;;7.05;;
73168;SDS011;61379;59.732;30.468;2023-11-18T15:04:23;6.22;;;5.82;;
73168;SDS011;61379;59.732;30.468;2023-11-18T15:06:50;6.30;;;5.90;;
73168;SDS011;61379;59.732;30.468;2023-11-18T15:09:18;8.43;;;7.70;;
73168;SDS011;61379;59.732;30.468;2023-11-18T15:11:47;8.57;;;7.75;;